sensor_id;sensor_type;location;lat;lon;timestamp;pressure;altitude;pressure_sealevel;temperature;humidity
2184;BME280;1098;48.940;8.962;2023-04-25T00:01:59;97914.31;;;9.63;100.00
2184;BME280;1098;48.940;8.962;2023-04-25T00:04:29;97914.53;;;9.85;100.00
2184;BME280;1098;48.940;8.962;2023-04-25T00:07:00;97910.09;;;9.56;100.00
2184;BME280;1098;48.940;8.962;2023-04-25T00:09:29;97911.25;;;9.60;100.00
2184;BME280;1098;48.940;8.962;2023-04-25T00:11:58;97909.84;;;9.46;100.00
2184;BME280;1098;48.940;8.962;2023-04-25T00:14:28;97884.16;;;9.08;100.00
2184;BME280;1098;48.940;8.962;2023-04-25T00:16:57;97897.66;;;9.32;100.00
2184;BME280;1098;48.940;8.962;2023-04-25T00:19:26;97900.09;;;9.80;100.00
2184;BME280;1098;48.940;8.962;2023-04-25T00:21:56;97893.53;;;9.64;100.00
2184;BME280;1098;48.940;8.962;2023-04-25T00:24:25;97900.91;;;9.80;100.00
2184;BME280;1098;48.940;8.962;2023-04-25T00:26:54;97903.88;;;9.55;100.00
2184;BME280;1098;48.940;8.962;2023-04-25T00:29:24;97909.13;;;9.39;100.00
2184;BME280;1098;48.940;8.962;2023-04-25T00:31:55;97909.75;;;9.52;100.00
2184;BME280;1098;48.940;8.962;2023-04-25T00:34:23;97907.25;;;9.27;100.00
2184;BME280;1098;48.940;8.962;2023-04-25T00:36:52;97907.25;;;9.27;100.00
2184;BME280;1098;48.940;8.962;2023-04-25T00:39:21;97910.59;;;8.88;100.00
2184;BME280;1098;48.940;8.962;2023-04-25T00:41:50;97900.53;;;9.07;100.00
2184;BME280;1098;48.940;8.962;2023-04-25T00:44:20;97901.91;;;8.86;100.00
2184;BME280;1098;48.940;8.962;2023-04-25T00:46:52;97900.75;;;8.93;100.00
2184;BME280;1098;48.940;8.962;2023-04-25T00:49:23;97912.59;;;8.92;100.00
2184;BME280;1098;48.940;8.962;2023-04-25T00:51:52;97901.22;;;8.90;100.00
2184;BME280;1098;48.940;8.962;2023-04-25T00:54:22;97894.88;;;8.96;100.00
2184;BME280;1098;48.940;8.962;2023-04-25T00:56:50;97893.50;;;9.06;100.00
2184;BME280;1098;48.940;8.962;2023-04-25T00:59:19;97892.59;;;9.12;100.00
2184;BME280;1098;48.940;8.962;2023-04-25T01:01:48;97890.03;;;9.28;100.00
2184;BME280;1098;48.940;8.962;2023-04-25T01:04:16;97879.00;;;9.30;100.00
2184;BME280;1098;48.940;8.962;2023-04-25T01:06:45;97868.78;;;9.20;100.00
2184;BME280;1098;48.940;8.962;2023-04-25T01:09:13;97880.28;;;9.04;100.00
2184;BME280;1098;48.940;8.962;2023-04-25T01:11:44;97882.97;;;8.92;100.00
2184;BME280;1098;48.940;8.962;2023-04-25T01:14:12;97884.09;;;8.96;100.00
2184;BME280;1098;48.940;8.962;2023-04-25T01:16:40;97885.28;;;8.89;100.00
2184;BME280;1098;48.940;8.962;2023-04-25T01:19:16;97877.72;;;8.68;100.00
2184;BME280;1098;48.940;8.962;2023-04-25T01:21:47;97854.25;;;8.56;100.00
2184;BME280;1098;48.940;8.962;2023-04-25T01:24:18;97880.19;;;8.69;100.00
2184;BME280;1098;48.940;8.962;2023-04-25T01:26:47;97873.63;;;8.77;100.00
2184;BME280;1098;48.940;8.962;2023-04-25T01:29:23;97878.81;;;8.78;100.00
2184;BME280;1098;48.940;8.962;2023-04-25T01:31:52;97863.53;;;8.60;100.00
2184;BME280;1098;48.940;8.962;2023-04-25T01:34:20;97879.22;;;8.64;100.00
2184;BME280;1098;48.940;8.962;2023-04-25T01:36:51;97875.19;;;8.73;100.00
2184;BME280;1098;48.940;8.962;2023-04-25T01:39:20;97881.25;;;8.68;100.00
2184;BME280;1098;48.940;8.962;2023-04-25T01:41:48;97879.75;;;8.84;100.00
2184;BME280;1098;48.940;8.962;2023-04-25T01:44:17;97870.63;;;8.85;100.00
2184;BME280;1098;48.940;8.962;2023-04-25T01:46:48;97875.81;;;8.56;100.00
2184;BME280;1098;48.940;8.962;2023-04-25T01:49:16;97859.41;;;8.88;100.00
2184;BME280;1098;48.940;8.962;2023-04-25T01:51:44;97871.88;;;8.71;100.00
2184;BME280;1098;48.940;8.962;2023-04-25T01:54:15;97865.38;;;9.02;100.00
2184;BME280;1098;48.940;8.962;2023-04-25T01:56:50;97867.34;;;8.94;100.00
2184;BME280;1098;48.940;8.962;2023-04-25T01:59:19;97870.19;;;8.58;100.00
2184;BME280;1098;48.940;8.962;2023-04-25T02:02:09;97857.38;;;8.72;100.00
2184;BME280;1098;48.940;8.962;2023-04-25T02:04:37;97855.19;;;8.50;100.00
2184;BME280;1098;48.940;8.962;2023-04-25T02:07:06;97851.56;;;8.56;100.00
2184;BME280;1098;48.940;8.962;2023-04-25T02:09:45;97853.72;;;8.66;100.00
2184;BME280;1098;48.940;8.962;2023-04-25T02:12:13;97863.13;;;8.45;100.00
2184;BME280;1098;48.940;8.962;2023-04-25T02:15:08;97871.38;;;8.32;100.00
2184;BME280;1098;48.940;8.962;2023-04-25T02:17:50;97877.50;;;8.39;100.00
2184;BME280;1098;48.940;8.962;2023-04-25T02:20:21;97863.97;;;8.46;100.00
2184;BME280;1098;48.940;8.962;2023-04-25T02:22:50;97851.97;;;8.72;100.00
2184;BME280;1098;48.940;8.962;2023-04-25T02:25:21;97871.59;;;8.49;100.00
2184;BME280;1098;48.940;8.962;2023-04-25T02:27:50;97858.88;;;8.68;100.00
2184;BME280;1098;48.940;8.962;2023-04-25T02:30:19;97854.78;;;8.65;100.00
2184;BME280;1098;48.940;8.962;2023-04-25T02:32:49;97849.38;;;8.65;100.00
2184;BME280;1098;48.940;8.962;2023-04-25T02:35:21;97857.31;;;8.60;100.00
2184;BME280;1098;48.940;8.962;2023-04-25T02:37:49;97857.00;;;8.68;100.00
2184;BME280;1098;48.940;8.962;2023-04-25T02:40:17;97853.34;;;8.51;100.00
2184;BME280;1098;48.940;8.962;2023-04-25T02:42:47;97854.84;;;8.58;100.00
2184;BME280;1098;48.940;8.962;2023-04-25T02:45:18;97859.03;;;8.43;100.00
2184;BME280;1098;48.940;8.962;2023-04-25T02:47:46;97850.88;;;8.49;100.00
2184;BME280;1098;48.940;8.962;2023-04-25T02:50:15;97846.97;;;8.45;100.00
2184;BME280;1098;48.940;8.962;2023-04-25T02:52:44;97844.28;;;8.45;100.00
2184;BME280;1098;48.940;8.962;2023-04-25T02:55:17;97842.44;;;8.57;100.00
2184;BME280;1098;48.940;8.962;2023-04-25T02:57:49;97845.34;;;8.44;100.00
2184;BME280;1098;48.940;8.962;2023-04-25T03:00:29;97836.09;;;8.22;100.00
2184;BME280;1098;48.940;8.962;2023-04-25T03:02:57;97850.72;;;8.44;100.00
2184;BME280;1098;48.940;8.962;2023-04-25T03:05:26;97850.38;;;8.22;100.00
2184;BME280;1098;48.940;8.962;2023-04-25T03:07:54;97847.75;;;8.34;100.00
2184;BME280;1098;48.940;8.962;2023-04-25T03:10:23;97845.97;;;8.28;100.00
2184;BME280;1098;48.940;8.962;2023-04-25T03:12:53;97840.97;;;8.73;100.00
2184;BME280;1098;48.940;8.962;2023-04-25T03:15:22;97843.56;;;8.80;100.00
2184;BME280;1098;48.940;8.962;2023-04-25T03:17:52;97837.63;;;8.48;100.00
2184;BME280;1098;48.940;8.962;2023-04-25T03:20:21;97845.72;;;8.59;100.00
2184;BME280;1098;48.940;8.962;2023-04-25T03:22:52;97846.47;;;8.67;100.00
2184;BME280;1098;48.940;8.962;2023-04-25T03:25:20;97841.34;;;9.00;100.00
2184;BME280;1098;48.940;8.962;2023-04-25T03:27:48;97844.25;;;8.75;100.00
2184;BME280;1098;48.940;8.962;2023-04-25T03:30:18;97842.59;;;8.63;100.00
2184;BME280;1098;48.940;8.962;2023-04-25T03:32:48;97830.53;;;8.77;100.00
2184;BME280;1098;48.940;8.962;2023-04-25T03:35:17;97830.84;;;9.10;100.00
2184;BME280;1098;48.940;8.962;2023-04-25T03:37:47;97830.25;;;9.32;100.00
2184;BME280;1098;48.940;8.962;2023-04-25T03:40:22;97823.69;;;9.04;100.00
2184;BME280;1098;48.940;8.962;2023-04-25T03:43:19;97828.78;;;8.71;100.00
2184;BME280;1098;48.940;8.962;2023-04-25T03:45:57;97839.72;;;8.99;100.00
2184;BME280;1098;48.940;8.962;2023-04-25T03:48:26;97833.19;;;9.07;100.00
2184;BME280;1098;48.940;8.962;2023-04-25T03:50:55;97839.50;;;9.12;100.00
2184;BME280;1098;48.940;8.962;2023-04-25T03:53:25;97828.16;;;9.34;100.00
2184;BME280;1098;48.940;8.962;2023-04-25T03:59:01;97834.47;;;8.92;100.00
2184;BME280;1098;48.940;8.962;2023-04-25T04:01:31;97835.16;;;9.00;100.00
2184;BME280;1098;48.940;8.962;2023-04-25T04:04:00;97836.84;;;8.59;100.00
2184;BME280;1098;48.940;8.962;2023-04-25T04:06:29;97842.44;;;8.57;100.00
2184;BME280;1098;48.940;8.962;2023-04-25T04:09:04;97844.97;;;8.71;100.00
2184;BME280;1098;48.940;8.962;2023-04-25T04:11:37;97846.69;;;8.77;100.00
2184;BME280;1098;48.940;8.962;2023-04-25T04:14:06;97841.69;;;8.80;100.00
2184;BME280;1098;48.940;8.962;2023-04-25T04:16:38;97842.25;;;8.71;100.00
2184;BME280;1098;48.940;8.962;2023-04-25T04:19:09;97838.63;;;8.77;100.00
2184;BME280;1098;48.940;8.962;2023-04-25T04:21:40;97836.66;;;8.84;100.00
2184;BME280;1098;48.940;8.962;2023-04-25T04:24:09;97837.63;;;9.01;100.00
2184;BME280;1098;48.940;8.962;2023-04-25T04:26:49;97836.16;;;8.75;100.00
2184;BME280;1098;48.940;8.962;2023-04-25T04:29:29;97837.16;;;9.04;100.00
2184;BME280;1098;48.940;8.962;2023-04-25T04:32:04;97850.63;;;8.92;100.00
2184;BME280;1098;48.940;8.962;2023-04-25T04:34:33;97850.22;;;8.66;100.00
2184;BME280;1098;48.940;8.962;2023-04-25T04:37:02;97857.41;;;8.95;100.00
2184;BME280;1098;48.940;8.962;2023-04-25T04:39:30;97859.44;;;9.11;100.00
2184;BME280;1098;48.940;8.962;2023-04-25T04:42:25;97848.97;;;9.03;100.00
2184;BME280;1098;48.940;8.962;2023-04-25T04:45:00;97857.28;;;8.90;100.00
2184;BME280;1098;48.940;8.962;2023-04-25T04:47:48;97859.19;;;8.59;100.00
2184;BME280;1098;48.940;8.962;2023-04-25T04:50:34;97864.97;;;8.75;100.00
2184;BME280;1098;48.940;8.962;2023-04-25T04:53:19;97867.63;;;9.16;100.00
2184;BME280;1098;48.940;8.962;2023-04-25T04:56:08;97868.38;;;8.82;100.00
2184;BME280;1098;48.940;8.962;2023-04-25T04:58:59;97868.03;;;8.78;100.00
2184;BME280;1098;48.940;8.962;2023-04-25T05:01:54;97871.81;;;8.89;100.00
2184;BME280;1098;48.940;8.962;2023-04-25T05:04:37;97868.38;;;8.70;100.00
2184;BME280;1098;48.940;8.962;2023-04-25T05:07:24;97867.44;;;8.76;100.00
2184;BME280;1098;48.940;8.962;2023-04-25T05:10:08;97872.41;;;8.91;100.00
2184;BME280;1098;48.940;8.962;2023-04-25T05:12:57;97877.44;;;8.87;100.00
2184;BME280;1098;48.940;8.962;2023-04-25T05:15:51;97875.13;;;9.38;100.00
2184;BME280;1098;48.940;8.962;2023-04-25T05:18:39;97870.44;;;9.45;100.00
2184;BME280;1098;48.940;8.962;2023-04-25T05:21:31;97866.69;;;9.69;100.00
2184;BME280;1098;48.940;8.962;2023-04-25T05:24:09;97849.59;;;9.28;100.00
2184;BME280;1098;48.940;8.962;2023-04-25T05:26:56;97872.78;;;9.76;100.00
2184;BME280;1098;48.940;8.962;2023-04-25T05:29:41;97837.84;;;9.70;100.00
2184;BME280;1098;48.940;8.962;2023-04-25T05:32:22;97875.50;;;9.41;100.00
2184;BME280;1098;48.940;8.962;2023-04-25T05:34:55;97879.22;;;9.17;100.00
2184;BME280;1098;48.940;8.962;2023-04-25T05:37:31;97873.03;;;9.51;100.00
2184;BME280;1098;48.940;8.962;2023-04-25T05:40:18;97868.56;;;9.45;100.00
2184;BME280;1098;48.940;8.962;2023-04-25T05:43:05;97879.69;;;9.37;100.00
2184;BME280;1098;48.940;8.962;2023-04-25T05:45:52;97867.25;;;9.94;100.00
2184;BME280;1098;48.940;8.962;2023-04-25T05:48:29;97867.94;;;9.78;100.00
2184;BME280;1098;48.940;8.962;2023-04-25T05:51:08;97866.13;;;10.19;100.00
2184;BME280;1098;48.940;8.962;2023-04-25T05:53:47;97877.16;;;10.57;100.00
2184;BME280;1098;48.940;8.962;2023-04-25T05:56:16;97878.78;;;10.30;100.00
2184;BME280;1098;48.940;8.962;2023-04-25T05:58:47;97877.22;;;10.62;100.00
2184;BME280;1098;48.940;8.962;2023-04-25T06:01:15;97876.59;;;13.14;100.00
2184;BME280;1098;48.940;8.962;2023-04-25T06:03:44;97873.56;;;12.51;100.00
2184;BME280;1098;48.940;8.962;2023-04-25T06:06:13;97878.13;;;11.30;100.00
2184;BME280;1098;48.940;8.962;2023-04-25T06:08:42;97884.06;;;10.82;100.00
2184;BME280;1098;48.940;8.962;2023-04-25T06:11:12;97890.53;;;10.81;100.00
2184;BME280;1098;48.940;8.962;2023-04-25T06:13:41;97889.41;;;10.77;100.00
2184;BME280;1098;48.940;8.962;2023-04-25T06:16:12;97883.88;;;10.55;100.00
2184;BME280;1098;48.940;8.962;2023-04-25T06:18:40;97887.06;;;11.14;100.00
2184;BME280;1098;48.940;8.962;2023-04-25T06:21:09;97881.72;;;11.02;100.00
2184;BME280;1098;48.940;8.962;2023-04-25T06:23:37;97884.94;;;11.32;100.00
2184;BME280;1098;48.940;8.962;2023-04-25T06:26:07;97889.69;;;11.25;100.00
2184;BME280;1098;48.940;8.962;2023-04-25T06:28:40;97888.69;;;11.48;100.00
2184;BME280;1098;48.940;8.962;2023-04-25T06:31:09;97883.28;;;11.48;100.00
2184;BME280;1098;48.940;8.962;2023-04-25T06:33:38;97888.72;;;10.70;100.00
2184;BME280;1098;48.940;8.962;2023-04-25T06:36:07;97888.34;;;10.49;100.00
2184;BME280;1098;48.940;8.962;2023-04-25T06:38:37;97887.00;;;10.23;100.00
2184;BME280;1098;48.940;8.962;2023-04-25T06:41:07;97879.72;;;10.24;100.00
2184;BME280;1098;48.940;8.962;2023-04-25T06:43:36;97884.56;;;10.22;100.00
2184;BME280;1098;48.940;8.962;2023-04-25T06:46:25;97877.66;;;10.43;100.00
2184;BME280;1098;48.940;8.962;2023-04-25T06:48:55;97882.59;;;10.46;100.00
2184;BME280;1098;48.940;8.962;2023-04-25T06:51:24;97876.63;;;10.89;100.00
2184;BME280;1098;48.940;8.962;2023-04-25T06:53:55;97879.47;;;10.65;100.00
2184;BME280;1098;48.940;8.962;2023-04-25T06:56:29;97878.78;;;10.30;100.00
2184;BME280;1098;48.940;8.962;2023-04-25T06:59:04;97892.44;;;10.12;100.00
2184;BME280;1098;48.940;8.962;2023-04-25T07:01:37;97891.13;;;10.26;100.00
2184;BME280;1098;48.940;8.962;2023-04-25T07:04:10;97892.16;;;9.73;100.00
2184;BME280;1098;48.940;8.962;2023-04-25T07:06:44;97890.94;;;9.92;100.00
2184;BME280;1098;48.940;8.962;2023-04-25T07:09:16;97895.28;;;9.58;100.00
2184;BME280;1098;48.940;8.962;2023-04-25T07:11:47;97894.38;;;9.64;100.00
2184;BME280;1098;48.940;8.962;2023-04-25T07:14:15;97898.59;;;9.49;100.00
2184;BME280;1098;48.940;8.962;2023-04-25T07:16:46;97904.44;;;9.46;100.00
2184;BME280;1098;48.940;8.962;2023-04-25T07:19:14;97906.91;;;9.24;100.00
2184;BME280;1098;48.940;8.962;2023-04-25T07:21:45;97905.03;;;9.13;100.00
2184;BME280;1098;48.940;8.962;2023-04-25T07:24:14;97905.13;;;9.18;100.00
2184;BME280;1098;48.940;8.962;2023-04-25T07:26:45;97912.09;;;9.49;100.00
2184;BME280;1098;48.940;8.962;2023-04-25T07:29:27;97913.00;;;9.31;100.00
2184;BME280;1098;48.940;8.962;2023-04-25T07:32:00;97912.56;;;9.34;100.00
2184;BME280;1098;48.940;8.962;2023-04-25T07:34:29;97907.03;;;9.76;100.00
2184;BME280;1098;48.940;8.962;2023-04-25T07:36:58;97914.97;;;9.36;100.00
2184;BME280;1098;48.940;8.962;2023-04-25T07:39:34;97915.69;;;9.43;100.00
2184;BME280;1098;48.940;8.962;2023-04-25T07:42:04;97918.38;;;9.78;100.00
2184;BME280;1098;48.940;8.962;2023-04-25T07:44:35;97919.31;;;9.25;100.00
2184;BME280;1098;48.940;8.962;2023-04-25T07:47:09;97915.91;;;9.99;100.00
2184;BME280;1098;48.940;8.962;2023-04-25T07:49:38;97923.44;;;9.97;100.00
2184;BME280;1098;48.940;8.962;2023-04-25T07:52:06;97918.81;;;10.61;100.00
2184;BME280;1098;48.940;8.962;2023-04-25T07:54:37;97920.69;;;10.32;100.00
2184;BME280;1098;48.940;8.962;2023-04-25T07:57:13;97929.00;;;10.71;100.00
2184;BME280;1098;48.940;8.962;2023-04-25T07:59:44;97924.31;;;10.95;100.00
2184;BME280;1098;48.940;8.962;2023-04-25T08:02:16;97925.91;;;10.51;100.00
2184;BME280;1098;48.940;8.962;2023-04-25T08:04:47;97933.59;;;10.71;100.00
2184;BME280;1098;48.940;8.962;2023-04-25T08:07:17;97937.28;;;10.81;100.00
2184;BME280;1098;48.940;8.962;2023-04-25T08:09:51;97931.72;;;11.16;100.00
2184;BME280;1098;48.940;8.962;2023-04-25T08:12:26;97940.72;;;11.05;100.00
2184;BME280;1098;48.940;8.962;2023-04-25T08:14:57;97938.69;;;10.84;100.00
2184;BME280;1098;48.940;8.962;2023-04-25T08:17:32;97940.53;;;10.38;100.00
2184;BME280;1098;48.940;8.962;2023-04-25T08:20:01;97949.44;;;10.39;100.00
2184;BME280;1098;48.940;8.962;2023-04-25T08:22:32;97960.69;;;10.47;100.00
2184;BME280;1098;48.940;8.962;2023-04-25T08:25:24;97940.78;;;10.02;100.00
2184;BME280;1098;48.940;8.962;2023-04-25T08:27:55;97951.00;;;10.63;100.00
2184;BME280;1098;48.940;8.962;2023-04-25T08:30:25;97959.25;;;10.85;100.00
2184;BME280;1098;48.940;8.962;2023-04-25T08:32:55;97961.75;;;10.46;100.00
2184;BME280;1098;48.940;8.962;2023-04-25T08:35:44;97966.72;;;10.26;100.00
2184;BME280;1098;48.940;8.962;2023-04-25T08:38:14;97968.59;;;10.37;100.00
2184;BME280;1098;48.940;8.962;2023-04-25T08:40:43;97977.25;;;10.51;100.00
2184;BME280;1098;48.940;8.962;2023-04-25T08:43:18;97976.56;;;10.09;100.00
2184;BME280;1098;48.940;8.962;2023-04-25T08:45:47;97983.84;;;10.08;100.00
2184;BME280;1098;48.940;8.962;2023-04-25T08:48:32;97987.13;;;9.98;100.00
2184;BME280;1098;48.940;8.962;2023-04-25T08:51:02;97993.72;;;10.03;100.00
2184;BME280;1098;48.940;8.962;2023-04-25T08:53:32;97994.53;;;9.68;100.00
2184;BME280;1098;48.940;8.962;2023-04-25T08:56:05;97998.19;;;9.97;100.00
2184;BME280;1098;48.940;8.962;2023-04-25T08:58:36;98010.28;;;9.94;100.00
2184;BME280;1098;48.940;8.962;2023-04-25T09:01:07;98010.81;;;9.50;100.00
2184;BME280;1098;48.940;8.962;2023-04-25T09:03:46;98012.31;;;9.46;100.00
2184;BME280;1098;48.940;8.962;2023-04-25T09:06:16;98019.78;;;10.20;100.00
2184;BME280;1098;48.940;8.962;2023-04-25T09:08:50;98009.72;;;9.39;100.00
2184;BME280;1098;48.940;8.962;2023-04-25T09:11:24;98021.19;;;10.11;100.00
2184;BME280;1098;48.940;8.962;2023-04-25T09:14:10;98035.03;;;10.26;100.00
2184;BME280;1098;48.940;8.962;2023-04-25T09:16:57;98033.00;;;9.98;100.00
2184;BME280;1098;48.940;8.962;2023-04-25T09:19:39;98026.81;;;10.10;100.00
2184;BME280;1098;48.940;8.962;2023-04-25T09:22:27;98034.06;;;9.86;100.00
2184;BME280;1098;48.940;8.962;2023-04-25T09:25:02;98046.31;;;9.35;100.00
2184;BME280;1098;48.940;8.962;2023-04-25T09:27:34;98055.84;;;9.19;100.00
2184;BME280;1098;48.940;8.962;2023-04-25T09:30:10;98069.75;;;9.35;100.00
2184;BME280;1098;48.940;8.962;2023-04-25T09:33:05;98082.91;;;9.13;100.00
2184;BME280;1098;48.940;8.962;2023-04-25T09:35:37;98095.41;;;9.07;100.00
2184;BME280;1098;48.940;8.962;2023-04-25T09:38:10;98099.84;;;8.83;100.00
2184;BME280;1098;48.940;8.962;2023-04-25T09:41:01;98107.69;;;7.99;100.00
2184;BME280;1098;48.940;8.962;2023-04-25T09:43:39;98114.88;;;7.80;100.00
2184;BME280;1098;48.940;8.962;2023-04-25T09:46:08;98119.91;;;7.70;100.00
2184;BME280;1098;48.940;8.962;2023-04-25T09:48:43;98132.31;;;7.71;100.00
2184;BME280;1098;48.940;8.962;2023-04-25T09:51:18;98134.88;;;7.59;100.00
2184;BME280;1098;48.940;8.962;2023-04-25T09:53:46;98151.47;;;8.37;100.00
2184;BME280;1098;48.940;8.962;2023-04-25T09:56:37;98162.81;;;8.46;100.00
2184;BME280;1098;48.940;8.962;2023-04-25T09:59:07;98161.75;;;8.47;100.00
2184;BME280;1098;48.940;8.962;2023-04-25T10:01:37;98164.56;;;8.95;100.00
2184;BME280;1098;48.940;8.962;2023-04-25T10:04:12;98161.53;;;8.48;100.00
2184;BME280;1098;48.940;8.962;2023-04-25T10:06:53;98173.50;;;8.52;100.00
2184;BME280;1098;48.940;8.962;2023-04-25T10:09:24;98173.09;;;8.24;100.00
2184;BME280;1098;48.940;8.962;2023-04-25T10:11:56;98183.28;;;8.22;100.00
2184;BME280;1098;48.940;8.962;2023-04-25T10:14:24;98186.06;;;8.09;100.00
2184;BME280;1098;48.940;8.962;2023-04-25T10:16:52;98187.88;;;8.46;100.00
2184;BME280;1098;48.940;8.962;2023-04-25T10:19:24;98191.66;;;9.00;100.00
2184;BME280;1098;48.940;8.962;2023-04-25T10:21:56;98193.34;;;8.58;100.00
2184;BME280;1098;48.940;8.962;2023-04-25T10:24:26;98189.28;;;8.92;100.00
2184;BME280;1098;48.940;8.962;2023-04-25T10:26:57;98182.72;;;8.63;100.00
2184;BME280;1098;48.940;8.962;2023-04-25T10:29:25;98181.47;;;8.66;100.00
2184;BME280;1098;48.940;8.962;2023-04-25T10:31:53;98181.66;;;8.89;100.00
2184;BME280;1098;48.940;8.962;2023-04-25T10:34:36;98181.75;;;8.76;100.00
2184;BME280;1098;48.940;8.962;2023-04-25T10:37:09;98175.91;;;8.60;100.00
2184;BME280;1098;48.940;8.962;2023-04-25T10:39:38;98191.00;;;8.86;100.00
2184;BME280;1098;48.940;8.962;2023-04-25T10:42:06;98192.19;;;8.90;100.00
2184;BME280;1098;48.940;8.962;2023-04-25T10:44:36;98198.16;;;8.74;100.00
2184;BME280;1098;48.940;8.962;2023-04-25T10:47:06;98207.97;;;8.69;100.00
2184;BME280;1098;48.940;8.962;2023-04-25T10:49:35;98210.63;;;8.50;100.00
2184;BME280;1098;48.940;8.962;2023-04-25T10:52:12;98218.34;;;9.08;100.00
2184;BME280;1098;48.940;8.962;2023-04-25T10:54:42;98216.97;;;8.99;100.00
2184;BME280;1098;48.940;8.962;2023-04-25T10:57:29;98209.31;;;8.78;100.00
2184;BME280;1098;48.940;8.962;2023-04-25T11:00:01;98203.88;;;9.03;100.00
2184;BME280;1098;48.940;8.962;2023-04-25T11:02:36;98208.28;;;8.97;100.00
2184;BME280;1098;48.940;8.962;2023-04-25T11:05:05;98207.78;;;9.07;100.00
2184;BME280;1098;48.940;8.962;2023-04-25T11:07:37;98205.97;;;9.01;100.00
2184;BME280;1098;48.940;8.962;2023-04-25T11:10:05;98203.50;;;9.17;100.00
2184;BME280;1098;48.940;8.962;2023-04-25T11:12:34;98199.31;;;9.21;100.00
2184;BME280;1098;48.940;8.962;2023-04-25T11:15:04;98207.69;;;9.50;100.00
2184;BME280;1098;48.940;8.962;2023-04-25T11:17:32;98207.78;;;9.73;100.00
2184;BME280;1098;48.940;8.962;2023-04-25T11:20:04;98192.66;;;10.14;100.00
2184;BME280;1098;48.940;8.962;2023-04-25T11:22:39;98195.06;;;9.92;100.00
2184;BME280;1098;48.940;8.962;2023-04-25T11:25:13;98184.81;;;9.82;100.00
2184;BME280;1098;48.940;8.962;2023-04-25T11:27:51;98186.47;;;9.83;100.00
2184;BME280;1098;48.940;8.962;2023-04-25T11:30:19;98184.16;;;9.39;100.00
2184;BME280;1098;48.940;8.962;2023-04-25T11:32:48;98189.31;;;9.40;100.00
2184;BME280;1098;48.940;8.962;2023-04-25T11:35:18;98193.44;;;9.43;100.00
2184;BME280;1098;48.940;8.962;2023-04-25T11:37:49;98198.09;;;9.36;100.00
2184;BME280;1098;48.940;8.962;2023-04-25T11:40:17;98189.56;;;9.39;100.00
2184;BME280;1098;48.940;8.962;2023-04-25T11:42:46;98190.78;;;9.73;100.00
2184;BME280;1098;48.940;8.962;2023-04-25T11:45:14;98191.31;;;9.63;100.00
2184;BME280;1098;48.940;8.962;2023-04-25T11:47:43;98191.75;;;9.60;100.00
2184;BME280;1098;48.940;8.962;2023-04-25T11:50:12;98184.00;;;9.82;100.00
2184;BME280;1098;48.940;8.962;2023-04-25T11:52:42;98188.03;;;9.91;100.00
2184;BME280;1098;48.940;8.962;2023-04-25T11:55:14;98189.00;;;10.61;100.00
2184;BME280;1098;48.940;8.962;2023-04-25T11:57:47;98187.31;;;10.25;100.00
2184;BME280;1098;48.940;8.962;2023-04-25T12:00:19;98173.81;;;11.19;100.00
2184;BME280;1098;48.940;8.962;2023-04-25T12:02:51;98183.81;;;11.07;100.00
2184;BME280;1098;48.940;8.962;2023-04-25T12:05:25;98188.66;;;10.58;100.00
2184;BME280;1098;48.940;8.962;2023-04-25T12:08:13;98190.31;;;10.59;100.00
2184;BME280;1098;48.940;8.962;2023-04-25T12:10:45;98190.28;;;10.82;100.00
2184;BME280;1098;48.940;8.962;2023-04-25T12:13:21;98187.94;;;10.74;100.00
2184;BME280;1098;48.940;8.962;2023-04-25T12:15:50;98193.50;;;11.43;100.00
2184;BME280;1098;48.940;8.962;2023-04-25T12:18:19;98193.94;;;10.53;100.00
2184;BME280;1098;48.940;8.962;2023-04-25T12:20:48;98197.78;;;10.33;100.00
2184;BME280;1098;48.940;8.962;2023-04-25T12:23:16;98197.00;;;10.56;100.00
2184;BME280;1098;48.940;8.962;2023-04-25T12:25:47;98204.75;;;10.11;100.00
2184;BME280;1098;48.940;8.962;2023-04-25T12:28:17;98202.66;;;9.83;100.00
2184;BME280;1098;48.940;8.962;2023-04-25T12:30:55;98203.03;;;9.87;100.00
2184;BME280;1098;48.940;8.962;2023-04-25T12:33:25;98211.06;;;10.35;100.00
2184;BME280;1098;48.940;8.962;2023-04-25T12:35:54;98202.91;;;10.23;100.00
2184;BME280;1098;48.940;8.962;2023-04-25T12:38:24;98227.13;;;9.70;100.00
2184;BME280;1098;48.940;8.962;2023-04-25T12:40:54;98237.88;;;9.40;100.00
2184;BME280;1098;48.940;8.962;2023-04-25T12:43:22;98252.16;;;9.59;100.00
2184;BME280;1098;48.940;8.962;2023-04-25T12:45:52;98245.91;;;9.28;100.00
2184;BME280;1098;48.940;8.962;2023-04-25T12:48:21;98239.16;;;9.56;100.00
2184;BME280;1098;48.940;8.962;2023-04-25T12:50:51;98245.75;;;9.90;100.00
2184;BME280;1098;48.940;8.962;2023-04-25T12:53:20;98229.56;;;9.42;100.00
2184;BME280;1098;48.940;8.962;2023-04-25T12:55:49;98234.69;;;9.61;100.00
2184;BME280;1098;48.940;8.962;2023-04-25T12:58:19;98234.31;;;9.76;100.00
2184;BME280;1098;48.940;8.962;2023-04-25T13:00:48;98239.34;;;10.03;100.00
2184;BME280;1098;48.940;8.962;2023-04-25T13:03:16;98235.59;;;10.45;100.00
2184;BME280;1098;48.940;8.962;2023-04-25T13:05:46;98220.09;;;10.41;100.00
2184;BME280;1098;48.940;8.962;2023-04-25T13:08:14;98234.91;;;10.50;100.00
2184;BME280;1098;48.940;8.962;2023-04-25T13:10:43;98231.06;;;11.04;100.00
2184;BME280;1098;48.940;8.962;2023-04-25T13:13:11;98225.50;;;11.22;100.00
2184;BME280;1098;48.940;8.962;2023-04-25T13:15:41;98228.41;;;11.44;100.00
2184;BME280;1098;48.940;8.962;2023-04-25T13:18:09;98215.06;;;11.14;100.00
2184;BME280;1098;48.940;8.962;2023-04-25T13:20:38;98214.63;;;10.94;100.00
2184;BME280;1098;48.940;8.962;2023-04-25T13:23:07;98217.75;;;12.06;100.00
2184;BME280;1098;48.940;8.962;2023-04-25T13:25:35;98222.25;;;12.00;100.00
2184;BME280;1098;48.940;8.962;2023-04-25T13:28:04;98208.56;;;11.39;100.00
2184;BME280;1098;48.940;8.962;2023-04-25T13:30:33;98223.75;;;11.28;100.00
2184;BME280;1098;48.940;8.962;2023-04-25T13:33:02;98222.59;;;11.12;100.00
2184;BME280;1098;48.940;8.962;2023-04-25T13:35:31;98228.84;;;10.89;100.00
2184;BME280;1098;48.940;8.962;2023-04-25T13:37:59;98237.16;;;11.11;100.00
2184;BME280;1098;48.940;8.962;2023-04-25T13:40:28;98214.13;;;11.20;100.00
2184;BME280;1098;48.940;8.962;2023-04-25T13:42:56;98227.28;;;11.68;100.00
2184;BME280;1098;48.940;8.962;2023-04-25T13:45:27;98230.88;;;11.57;100.00
2184;BME280;1098;48.940;8.962;2023-04-25T13:47:58;98223.34;;;11.48;100.00
2184;BME280;1098;48.940;8.962;2023-04-25T13:50:29;98246.22;;;11.17;100.00
2184;BME280;1098;48.940;8.962;2023-04-25T13:52:57;98238.69;;;11.07;100.00